sensor_id;sensor_type;location;lat;lon;timestamp;temperature;humidity
13433;DHT22;6789;47.678;9.158;2023-04-02T00:00:18;7.70;99.90
13433;DHT22;6789;47.678;9.158;2023-04-02T00:15:33;7.70;99.90
13433;DHT22;6789;47.678;9.158;2023-04-02T00:20:26;7.80;99.90
13433;DHT22;6789;47.678;9.158;2023-04-02T00:25:25;7.80;99.90
13433;DHT22;6789;47.678;9.158;2023-04-02T00:30:34;7.80;99.90
13433;DHT22;6789;47.678;9.158;2023-04-02T00:35:29;7.90;99.90
13433;DHT22;6789;47.678;9.158;2023-04-02T00:40:29;8.10;99.90
13433;DHT22;6789;47.678;9.158;2023-04-02T00:45:34;8.00;99.90
13433;DHT22;6789;47.678;9.158;2023-04-02T00:50:35;8.00;99.90
13433;DHT22;6789;47.678;9.158;2023-04-02T00:55:47;8.10;99.90
13433;DHT22;6789;47.678;9.158;2023-04-02T01:01:13;8.00;99.90
13433;DHT22;6789;47.678;9.158;2023-04-02T01:06:11;7.90;99.90
13433;DHT22;6789;47.678;9.158;2023-04-02T01:11:18;7.90;99.90
13433;DHT22;6789;47.678;9.158;2023-04-02T01:21:59;8.10;99.90
13433;DHT22;6789;47.678;9.158;2023-04-02T01:27:05;8.00;99.90
13433;DHT22;6789;47.678;9.158;2023-04-02T01:32:11;7.90;99.90
13433;DHT22;6789;47.678;9.158;2023-04-02T01:48:25;7.80;99.90
13433;DHT22;6789;47.678;9.158;2023-04-02T01:53:24;7.80;99.90
13433;DHT22;6789;47.678;9.158;2023-04-02T01:58:22;7.70;99.90
13433;DHT22;6789;47.678;9.158;2023-04-02T02:03:18;7.60;99.90
13433;DHT22;6789;47.678;9.158;2023-04-02T02:13:24;7.50;99.90
13433;DHT22;6789;47.678;9.158;2023-04-02T02:18:20;7.30;99.90
13433;DHT22;6789;47.678;9.158;2023-04-02T02:23:17;7.40;99.90
13433;DHT22;6789;47.678;9.158;2023-04-02T02:28:25;7.50;99.90
13433;DHT22;6789;47.678;9.158;2023-04-02T02:33:31;7.40;99.90
13433;DHT22;6789;47.678;9.158;2023-04-02T02:43:26;7.30;99.90
13433;DHT22;6789;47.678;9.158;2023-04-02T02:48:20;7.40;99.90
13433;DHT22;6789;47.678;9.158;2023-04-02T02:53:22;7.50;99.90
13433;DHT22;6789;47.678;9.158;2023-04-02T02:58:17;7.60;99.90
13433;DHT22;6789;47.678;9.158;2023-04-02T03:03:21;7.60;99.90
13433;DHT22;6789;47.678;9.158;2023-04-02T03:08:51;7.70;99.90
13433;DHT22;6789;47.678;9.158;2023-04-02T03:13:43;7.70;99.90
13433;DHT22;6789;47.678;9.158;2023-04-02T03:30:04;7.80;99.90
13433;DHT22;6789;47.678;9.158;2023-04-02T03:40:32;7.80;99.90
13433;DHT22;6789;47.678;9.158;2023-04-02T03:45:44;7.80;99.90
13433;DHT22;6789;47.678;9.158;2023-04-02T03:50:51;7.80;99.90
13433;DHT22;6789;47.678;9.158;2023-04-02T03:56:05;7.80;99.90
13433;DHT22;6789;47.678;9.158;2023-04-02T04:01:18;7.80;99.90
13433;DHT22;6789;47.678;9.158;2023-04-02T04:06:23;7.90;99.90
13433;DHT22;6789;47.678;9.158;2023-04-02T04:11:27;7.80;99.90
13433;DHT22;6789;47.678;9.158;2023-04-02T04:16:30;7.80;99.90
13433;DHT22;6789;47.678;9.158;2023-04-02T04:21:27;7.80;99.90
13433;DHT22;6789;47.678;9.158;2023-04-02T04:26:41;7.80;99.90
13433;DHT22;6789;47.678;9.158;2023-04-02T04:31:47;7.80;99.90
13433;DHT22;6789;47.678;9.158;2023-04-02T04:36:43;7.80;99.90
13433;DHT22;6789;47.678;9.158;2023-04-02T04:41:46;7.70;99.90
13433;DHT22;6789;47.678;9.158;2023-04-02T04:46:40;7.70;99.90
13433;DHT22;6789;47.678;9.158;2023-04-02T04:51:45;7.70;99.90
13433;DHT22;6789;47.678;9.158;2023-04-02T04:56:52;7.70;99.90
13433;DHT22;6789;47.678;9.158;2023-04-02T05:01:59;7.70;99.90
13433;DHT22;6789;47.678;9.158;2023-04-02T05:07:17;7.70;99.90
13433;DHT22;6789;47.678;9.158;2023-04-02T05:12:39;7.70;99.90
13433;DHT22;6789;47.678;9.158;2023-04-02T05:17:41;7.80;99.90
13433;DHT22;6789;47.678;9.158;2023-04-02T05:23:01;7.80;99.90
13433;DHT22;6789;47.678;9.158;2023-04-02T05:33:46;7.80;99.90
13433;DHT22;6789;47.678;9.158;2023-04-02T05:38:44;7.90;99.90
13433;DHT22;6789;47.678;9.158;2023-04-02T05:43:37;7.90;99.90
13433;DHT22;6789;47.678;9.158;2023-04-02T05:48:38;8.10;99.90
13433;DHT22;6789;47.678;9.158;2023-04-02T05:53:39;8.20;99.90
13433;DHT22;6789;47.678;9.158;2023-04-02T05:58:54;8.30;99.90
13433;DHT22;6789;47.678;9.158;2023-04-02T06:04:41;8.40;99.90
13433;DHT22;6789;47.678;9.158;2023-04-02T06:10:02;8.40;99.90
13433;DHT22;6789;47.678;9.158;2023-04-02T06:15:00;8.50;99.90
13433;DHT22;6789;47.678;9.158;2023-04-02T06:19:53;8.40;99.90
13433;DHT22;6789;47.678;9.158;2023-04-02T06:24:54;8.50;99.90
13433;DHT22;6789;47.678;9.158;2023-04-02T06:29:50;8.70;99.90
13433;DHT22;6789;47.678;9.158;2023-04-02T06:34:48;8.90;99.90
13433;DHT22;6789;47.678;9.158;2023-04-02T06:39:40;8.90;99.90
13433;DHT22;6789;47.678;9.158;2023-04-02T06:44:34;9.00;99.90
13433;DHT22;6789;47.678;9.158;2023-04-02T06:49:50;9.10;99.90
13433;DHT22;6789;47.678;9.158;2023-04-02T07:00:49;9.50;99.90
13433;DHT22;6789;47.678;9.158;2023-04-02T07:05:42;9.60;99.90
13433;DHT22;6789;47.678;9.158;2023-04-02T07:10:36;9.80;99.90
13433;DHT22;6789;47.678;9.158;2023-04-02T07:15:45;10.10;99.90
13433;DHT22;6789;47.678;9.158;2023-04-02T07:20:52;10.30;99.90
13433;DHT22;6789;47.678;9.158;2023-04-02T07:25:58;10.40;99.90
13433;DHT22;6789;47.678;9.158;2023-04-02T07:30:57;10.50;99.90
13433;DHT22;6789;47.678;9.158;2023-04-02T07:36:03;10.70;99.90
13433;DHT22;6789;47.678;9.158;2023-04-02T07:40:56;10.80;99.90
13433;DHT22;6789;47.678;9.158;2023-04-02T07:45:49;11.00;99.90
13433;DHT22;6789;47.678;9.158;2023-04-02T07:50:43;11.30;99.90
13433;DHT22;6789;47.678;9.158;2023-04-02T07:55:35;11.40;99.90
13433;DHT22;6789;47.678;9.158;2023-04-02T08:00:27;11.40;99.90
13433;DHT22;6789;47.678;9.158;2023-04-02T08:05:19;11.80;99.90
13433;DHT22;6789;47.678;9.158;2023-04-02T08:10:13;11.80;99.90
13433;DHT22;6789;47.678;9.158;2023-04-02T08:15:05;11.80;99.90
13433;DHT22;6789;47.678;9.158;2023-04-02T08:19:58;12.00;99.90
13433;DHT22;6789;47.678;9.158;2023-04-02T08:24:52;12.20;99.90
13433;DHT22;6789;47.678;9.158;2023-04-02T08:29:44;12.20;99.90
13433;DHT22;6789;47.678;9.158;2023-04-02T08:34:36;12.50;99.90
13433;DHT22;6789;47.678;9.158;2023-04-02T08:39:28;12.60;99.90
13433;DHT22;6789;47.678;9.158;2023-04-02T08:44:41;12.60;99.90
13433;DHT22;6789;47.678;9.158;2023-04-02T08:50:35;12.40;99.90
13433;DHT22;6789;47.678;9.158;2023-04-02T08:55:56;12.20;99.90
13433;DHT22;6789;47.678;9.158;2023-04-02T09:00:56;12.10;99.90
13433;DHT22;6789;47.678;9.158;2023-04-02T09:05:52;12.00;99.90
13433;DHT22;6789;47.678;9.158;2023-04-02T09:10:52;11.90;99.90
13433;DHT22;6789;47.678;9.158;2023-04-02T09:15:55;11.90;99.90
13433;DHT22;6789;47.678;9.158;2023-04-02T09:20:53;11.90;99.90
13433;DHT22;6789;47.678;9.158;2023-04-02T09:25:51;12.00;99.90
13433;DHT22;6789;47.678;9.158;2023-04-02T09:31:21;12.70;99.90
13433;DHT22;6789;47.678;9.158;2023-04-02T09:36:31;12.80;99.90
13433;DHT22;6789;47.678;9.158;2023-04-02T09:41:28;12.60;99.90
13433;DHT22;6789;47.678;9.158;2023-04-02T09:46:23;12.60;99.90
13433;DHT22;6789;47.678;9.158;2023-04-02T09:51:21;12.50;99.90
13433;DHT22;6789;47.678;9.158;2023-04-02T09:56:19;12.30;99.90
13433;DHT22;6789;47.678;9.158;2023-04-02T10:01:27;12.20;99.90
13433;DHT22;6789;47.678;9.158;2023-04-02T10:06:21;12.30;99.90
13433;DHT22;6789;47.678;9.158;2023-04-02T10:11:29;12.60;99.90
13433;DHT22;6789;47.678;9.158;2023-04-02T10:16:43;13.00;99.90
13433;DHT22;6789;47.678;9.158;2023-04-02T10:21:41;12.80;99.90
13433;DHT22;6789;47.678;9.158;2023-04-02T10:26:44;12.60;99.90
13433;DHT22;6789;47.678;9.158;2023-04-02T10:31:53;12.70;99.90
13433;DHT22;6789;47.678;9.158;2023-04-02T10:37:13;13.00;99.90
13433;DHT22;6789;47.678;9.158;2023-04-02T10:42:42;13.40;99.90
13433;DHT22;6789;47.678;9.158;2023-04-02T10:48:43;13.50;99.90
13433;DHT22;6789;47.678;9.158;2023-04-02T10:53:18;13.80;99.90
13433;DHT22;6789;47.678;9.158;2023-04-02T10:58:26;13.50;99.90
13433;DHT22;6789;47.678;9.158;2023-04-02T11:03:35;13.40;99.90
13433;DHT22;6789;47.678;9.158;2023-04-02T11:08:41;13.40;99.90
13433;DHT22;6789;47.678;9.158;2023-04-02T11:29:28;12.80;99.90
13433;DHT22;6789;47.678;9.158;2023-04-02T11:39:52;12.80;99.90
13433;DHT22;6789;47.678;9.158;2023-04-02T11:44:47;13.10;99.90
13433;DHT22;6789;47.678;9.158;2023-04-02T11:49:39;12.90;99.90
13433;DHT22;6789;47.678;9.158;2023-04-02T11:55:21;12.60;99.90
13433;DHT22;6789;47.678;9.158;2023-04-02T12:11:39;12.70;99.90
13433;DHT22;6789;47.678;9.158;2023-04-02T12:16:33;12.80;99.90
13433;DHT22;6789;47.678;9.158;2023-04-02T12:21:28;12.80;99.90
13433;DHT22;6789;47.678;9.158;2023-04-02T12:31:26;13.20;99.90
13433;DHT22;6789;47.678;9.158;2023-04-02T12:36:32;13.20;99.90
13433;DHT22;6789;47.678;9.158;2023-04-02T12:41:27;13.30;99.90
13433;DHT22;6789;47.678;9.158;2023-04-02T12:46:22;13.60;99.90
13433;DHT22;6789;47.678;9.158;2023-04-02T12:51:16;13.60;99.90
13433;DHT22;6789;47.678;9.158;2023-04-02T12:56:18;13.40;99.90
13433;DHT22;6789;47.678;9.158;2023-04-02T13:01:16;13.50;99.90
13433;DHT22;6789;47.678;9.158;2023-04-02T13:06:22;13.70;99.90
13433;DHT22;6789;47.678;9.158;2023-04-02T13:11:15;13.70;99.90
13433;DHT22;6789;47.678;9.158;2023-04-02T13:16:25;13.60;99.90
13433;DHT22;6789;47.678;9.158;2023-04-02T13:26:17;14.00;99.90
13433;DHT22;6789;47.678;9.158;2023-04-02T13:31:15;13.90;99.90
13433;DHT22;6789;47.678;9.158;2023-04-02T13:36:12;13.90;99.90
13433;DHT22;6789;47.678;9.158;2023-04-02T13:41:05;14.00;99.90
13433;DHT22;6789;47.678;9.158;2023-04-02T13:46:01;14.10;99.90
13433;DHT22;6789;47.678;9.158;2023-04-02T13:50:56;14.30;99.90
13433;DHT22;6789;47.678;9.158;2023-04-02T13:55:48;14.50;99.90
13433;DHT22;6789;47.678;9.158;2023-04-02T14:00:40;14.50;99.90
13433;DHT22;6789;47.678;9.158;2023-04-02T14:16:14;14.90;99.90
13433;DHT22;6789;47.678;9.158;2023-04-02T14:37:44;15.00;99.90
13433;DHT22;6789;47.678;9.158;2023-04-02T14:48:00;15.40;99.90
13433;DHT22;6789;47.678;9.158;2023-04-02T14:53:11;15.20;99.90
13433;DHT22;6789;47.678;9.158;2023-04-02T14:58:15;15.20;99.90
13433;DHT22;6789;47.678;9.158;2023-04-02T15:03:17;14.90;99.90
13433;DHT22;6789;47.678;9.158;2023-04-02T15:08:18;14.30;99.90
13433;DHT22;6789;47.678;9.158;2023-04-02T15:13:24;13.10;99.90
13433;DHT22;6789;47.678;9.158;2023-04-02T15:18:21;12.70;99.90
13433;DHT22;6789;47.678;9.158;2023-04-02T15:28:42;12.50;99.90
13433;DHT22;6789;47.678;9.158;2023-04-02T15:54:36;12.50;99.90
13433;DHT22;6789;47.678;9.158;2023-04-02T16:05:01;12.60;99.90
13433;DHT22;6789;47.678;9.158;2023-04-02T16:14:59;12.60;99.90
13433;DHT22;6789;47.678;9.158;2023-04-02T16:20:21;12.70;99.90
13433;DHT22;6789;47.678;9.158;2023-04-02T16:25:44;12.70;99.90
13433;DHT22;6789;47.678;9.158;2023-04-02T16:31:18;12.70;99.90
13433;DHT22;6789;47.678;9.158;2023-04-02T16:36:41;12.70;99.90
13433;DHT22;6789;47.678;9.158;2023-04-02T17:18:33;11.80;99.90
13433;DHT22;6789;47.678;9.158;2023-04-02T17:23:27;11.80;99.90
13433;DHT22;6789;47.678;9.158;2023-04-02T17:28:26;11.80;99.90
13433;DHT22;6789;47.678;9.158;2023-04-02T17:33:27;11.80;99.90
13433;DHT22;6789;47.678;9.158;2023-04-02T17:39:06;11.90;99.90
13433;DHT22;6789;47.678;9.158;2023-04-02T17:50:08;11.80;99.90
13433;DHT22;6789;47.678;9.158;2023-04-02T17:55:19;11.60;99.90
13433;DHT22;6789;47.678;9.158;2023-04-02T18:00:31;11.60;99.90
13433;DHT22;6789;47.678;9.158;2023-04-02T18:29:04;11.10;99.90
13433;DHT22;6789;47.678;9.158;2023-04-02T18:39:59;11.00;99.90
13433;DHT22;6789;47.678;9.158;2023-04-02T18:45:24;11.00;99.90
13433;DHT22;6789;47.678;9.158;2023-04-02T18:50:32;10.90;99.90
13433;DHT22;6789;47.678;9.158;2023-04-02T18:55:29;10.80;99.90
13433;DHT22;6789;47.678;9.158;2023-04-02T19:00:39;10.80;99.90
13433;DHT22;6789;47.678;9.158;2023-04-02T19:05:36;10.70;99.90
13433;DHT22;6789;47.678;9.158;2023-04-02T19:10:53;10.60;99.90
13433;DHT22;6789;47.678;9.158;2023-04-02T19:21:26;10.40;99.90
13433;DHT22;6789;47.678;9.158;2023-04-02T19:26:44;10.40;99.90
13433;DHT22;6789;47.678;9.158;2023-04-02T19:37:38;10.20;99.90
13433;DHT22;6789;47.678;9.158;2023-04-02T19:42:41;10.00;99.90
13433;DHT22;6789;47.678;9.158;2023-04-02T19:47:36;9.90;99.90
13433;DHT22;6789;47.678;9.158;2023-04-02T19:52:28;9.70;99.90
13433;DHT22;6789;47.678;9.158;2023-04-02T19:57:19;9.60;99.90
13433;DHT22;6789;47.678;9.158;2023-04-02T20:02:12;9.60;99.90
13433;DHT22;6789;47.678;9.158;2023-04-02T20:07:04;9.50;99.90
13433;DHT22;6789;47.678;9.158;2023-04-02T20:11:56;9.40;99.90
13433;DHT22;6789;47.678;9.158;2023-04-02T20:16:47;9.30;99.90
13433;DHT22;6789;47.678;9.158;2023-04-02T20:21:39;9.20;99.90
13433;DHT22;6789;47.678;9.158;2023-04-02T20:26:31;9.20;99.90
13433;DHT22;6789;47.678;9.158;2023-04-02T20:31:24;9.20;99.90
13433;DHT22;6789;47.678;9.158;2023-04-02T20:36:16;9.20;99.90
13433;DHT22;6789;47.678;9.158;2023-04-02T20:41:08;9.20;99.90
13433;DHT22;6789;47.678;9.158;2023-04-02T20:46:04;9.10;99.90
13433;DHT22;6789;47.678;9.158;2023-04-02T20:51:02;9.10;99.90
13433;DHT22;6789;47.678;9.158;2023-04-02T20:56:06;9.00;99.90
13433;DHT22;6789;47.678;9.158;2023-04-02T21:01:23;9.00;99.90
13433;DHT22;6789;47.678;9.158;2023-04-02T21:06:19;9.00;99.90
13433;DHT22;6789;47.678;9.158;2023-04-02T21:11:14;8.90;99.90
13433;DHT22;6789;47.678;9.158;2023-04-02T21:16:27;8.80;99.90
13433;DHT22;6789;47.678;9.158;2023-04-02T21:21:21;8.90;99.90
13433;DHT22;6789;47.678;9.158;2023-04-02T21:26:15;8.70;99.90
13433;DHT22;6789;47.678;9.158;2023-04-02T21:31:11;8.70;99.90
13433;DHT22;6789;47.678;9.158;2023-04-02T21:36:10;8.70;99.90
13433;DHT22;6789;47.678;9.158;2023-04-02T21:41:12;8.60;99.90
13433;DHT22;6789;47.678;9.158;2023-04-02T21:46:09;8.50;99.90
13433;DHT22;6789;47.678;9.158;2023-04-02T21:51:13;8.50;99.90
13433;DHT22;6789;47.678;9.158;2023-04-02T21:56:23;8.50;99.90
13433;DHT22;6789;47.678;9.158;2023-04-02T22:01:19;8.30;99.90
13433;DHT22;6789;47.678;9.158;2023-04-02T22:06:19;8.00;99.90
13433;DHT22;6789;47.678;9.158;2023-04-02T22:11:15;7.80;99.90
13433;DHT22;6789;47.678;9.158;2023-04-02T22:16:20;7.60;99.90
13433;DHT22;6789;47.678;9.158;2023-04-02T22:21:15;7.50;99.90
13433;DHT22;6789;47.678;9.158;2023-04-02T22:26:08;7.50;99.90
13433;DHT22;6789;47.678;9.158;2023-04-02T22:31:17;7.40;99.90
13433;DHT22;6789;47.678;9.158;2023-04-02T22:36:12;7.30;99.90
13433;DHT22;6789;47.678;9.158;2023-04-02T22:41:22;7.30;99.90
13433;DHT22;6789;47.678;9.158;2023-04-02T22:46:33;7.20;99.90
13433;DHT22;6789;47.678;9.158;2023-04-02T22:51:26;7.10;99.90
13433;DHT22;6789;47.678;9.158;2023-04-02T22:56:21;7.00;99.90
13433;DHT22;6789;47.678;9.158;2023-04-02T23:01:22;6.90;99.90
13433;DHT22;6789;47.678;9.158;2023-04-02T23:07:04;6.80;99.90
13433;DHT22;6789;47.678;9.158;2023-04-02T23:12:11;6.80;99.90
13433;DHT22;6789;47.678;9.158;2023-04-02T23:17:21;6.80;99.90
13433;DHT22;6789;47.678;9.158;2023-04-02T23:22:38;6.90;99.90
13433;DHT22;6789;47.678;9.158;2023-04-02T23:27:30;6.80;99.90
13433;DHT22;6789;47.678;9.158;2023-04-02T23:32:23;6.70;99.90
13433;DHT22;6789;47.678;9.158;2023-04-02T23:37:14;6.60;99.90
13433;DHT22;6789;47.678;9.158;2023-04-02T23:42:08;6.30;99.90
13433;DHT22;6789;47.678;9.158;2023-04-02T23:47:00;6.20;99.90
13433;DHT22;6789;47.678;9.158;2023-04-02T23:51:53;6.20;99.90
13433;DHT22;6789;47.678;9.158;2023-04-02T23:56:45;6.30;99.90
